EFKE/KEM METAR and TAF weather

Enter ICAO airport designator
Station Type Date Time Source
EFKE METAR 2019/12/11 15:20 UTC NOAA

EFKE 111520Z AUTO 18022G34KT 3600 -FZDZSN OVC005 M00/M00 Q0990


Station Type Date Time Source
EFKE Decoded METAR 2019/12/11 15:20 UTC NOAA

Kemi, Finland (EFKE) 65-47N 024-35E
Dec 11, 2019 - 10:20 AM EST / 2019.12.11 1520 UTC
Wind: from the S (180 degrees) at 25 MPH (22 KT) gusting to 39 MPH (34 KT):0
Visibility: 2 mile(s):0
Sky conditions: overcast
Weather: light freezing drizzle, snow
Temperature: 32 F (0 C)
Windchill: 19 F (-7 C):1
Dew Point: 32 F (0 C)
Relative Humidity: 100%
Pressure (altimeter): 29.23 in. Hg (0990 hPa)
ob: EFKE 111520Z AUTO 18022G34KT 3600 -FZDZSN OVC005 M00/M00 Q0990
cycle: 15

Station Type Date Time Source
EFKE TAF 2015/01/12 15:42 UTC NOAA

TAF EFKE 121433Z 1215/1312 03006KT CAVOK
BECMG 1300/1302 9999 BKN015
FM130400 07008KT 9999 SCT014 BKN018
TEMPO 1304/1312 7000 -SN

Example: see airport list